createdAt,value
2017-07-31T00:01:24.314Z,43.51
2017-07-31T00:03:51.875Z,43.63
2017-07-31T00:06:19.389Z,43.62
2017-07-31T00:08:46.902Z,43.62
2017-07-31T00:11:14.470Z,43.85
2017-07-31T00:13:42.003Z,43.70
2017-07-31T00:16:09.552Z,43.67
2017-07-31T00:18:37.091Z,43.73
2017-07-31T00:21:04.680Z,43.85
2017-07-31T00:23:32.190Z,43.93
2017-07-31T00:25:59.731Z,43.96
2017-07-31T00:28:27.234Z,43.93
2017-07-31T00:30:54.779Z,44.10
2017-07-31T00:33:22.288Z,44.00
2017-07-31T00:35:49.842Z,44.16
2017-07-31T00:38:17.358Z,43.97
2017-07-31T00:40:44.926Z,44.09
2017-07-31T00:43:12.499Z,44.18
2017-07-31T00:45:40.032Z,44.37
2017-07-31T00:48:07.592Z,44.61
2017-07-31T00:50:35.107Z,44.42
2017-07-31T00:53:02.713Z,44.46
2017-07-31T00:55:30.224Z,44.59
2017-07-31T00:57:57.769Z,44.62
2017-07-31T01:00:25.278Z,44.41
2017-07-31T01:02:52.838Z,44.72
2017-07-31T01:05:20.351Z,45.24
2017-07-31T01:07:47.866Z,45.50
2017-07-31T01:10:15.422Z,45.89
2017-07-31T01:12:42.930Z,46.24
2017-07-31T01:15:10.482Z,46.36
2017-07-31T01:17:38.023Z,46.76
2017-07-31T01:20:05.583Z,47.04
2017-07-31T01:22:33.120Z,47.21
2017-07-31T01:25:01.283Z,47.19
2017-07-31T01:27:28.852Z,47.07
2017-07-31T01:29:56.359Z,46.83
2017-07-31T01:32:23.867Z,46.98
2017-07-31T01:34:51.481Z,47.35
2017-07-31T01:37:19.018Z,47.21
2017-07-31T01:39:46.534Z,47.25
2017-07-31T01:42:14.087Z,47.28
2017-07-31T01:44:41.670Z,47.18
2017-07-31T01:47:09.239Z,47.02
2017-07-31T01:49:36.747Z,46.63
2017-07-31T01:52:04.287Z,46.72
2017-07-31T01:54:31.790Z,46.77
2017-07-31T01:56:59.343Z,46.83
2017-07-31T01:59:26.846Z,46.82
2017-07-31T02:01:54.395Z,46.60
2017-07-31T02:04:21.954Z,46.67
2017-07-31T02:06:49.475Z,46.58
2017-07-31T02:09:16.978Z,46.67
2017-07-31T02:11:44.558Z,46.69
2017-07-31T02:14:12.094Z,46.84
2017-07-31T02:16:39.648Z,46.78
2017-07-31T02:19:07.171Z,46.91
2017-07-31T02:21:34.679Z,46.96
2017-07-31T02:24:02.258Z,47.07
2017-07-31T02:26:29.777Z,46.97
2017-07-31T02:28:57.320Z,46.95
2017-07-31T02:31:24.835Z,47.05
2017-07-31T02:33:52.379Z,47.24
2017-07-31T02:36:19.918Z,47.03
2017-07-31T02:38:47.462Z,46.98
2017-07-31T02:41:15.026Z,47.06
2017-07-31T02:43:42.532Z,47.07
2017-07-31T02:46:10.054Z,47.52
2017-07-31T02:48:37.612Z,47.66
2017-07-31T02:51:05.123Z,47.29
2017-07-31T02:53:32.627Z,47.32
2017-07-31T02:56:00.191Z,47.08
2017-07-31T02:58:27.707Z,47.29
2017-07-31T03:00:55.210Z,47.51
2017-07-31T03:03:22.770Z,47.35
2017-07-31T03:05:50.275Z,47.33
2017-07-31T03:08:17.783Z,47.68
2017-07-31T03:10:45.330Z,47.50
2017-07-31T03:13:12.887Z,47.51
2017-07-31T03:15:40.431Z,47.54
2017-07-31T03:18:08.017Z,47.42
2017-07-31T03:20:35.532Z,47.43
2017-07-31T03:23:03.054Z,47.50
2017-07-31T03:25:30.608Z,47.63
2017-07-31T03:27:58.164Z,47.62
2017-07-31T03:30:25.728Z,47.67
2017-07-31T03:32:53.285Z,47.66
2017-07-31T03:35:20.810Z,47.68
2017-07-31T03:37:48.448Z,47.77
2017-07-31T03:40:15.994Z,47.83
2017-07-31T03:42:43.520Z,47.72
2017-07-31T03:45:11.120Z,47.56
2017-07-31T03:47:38.635Z,47.50
2017-07-31T03:50:06.155Z,47.49
2017-07-31T03:52:33.759Z,47.50
2017-07-31T03:55:01.288Z,47.58
2017-07-31T03:57:28.792Z,47.33
2017-07-31T03:59:56.388Z,47.08
2017-07-31T04:02:23.943Z,47.02
2017-07-31T04:04:51.718Z,46.87
2017-07-31T04:07:19.288Z,46.95
2017-07-31T04:09:46.861Z,46.81
2017-07-31T04:12:14.410Z,46.62
2017-07-31T04:14:42.193Z,46.50
2017-07-31T04:17:09.706Z,46.37
2017-07-31T04:19:37.291Z,46.33
2017-07-31T04:22:04.807Z,46.34
2017-07-31T04:24:32.335Z,46.22
2017-07-31T04:26:59.910Z,46.21
2017-07-31T04:29:27.419Z,46.06
2017-07-31T04:31:54.938Z,46.01
2017-07-31T04:34:22.560Z,45.99
2017-07-31T04:36:50.079Z,46.00
2017-07-31T04:39:17.653Z,45.97
2017-07-31T04:41:45.183Z,45.85
2017-07-31T04:44:12.742Z,45.89
2017-07-31T04:46:40.292Z,45.66
2017-07-31T04:49:07.828Z,45.76
2017-07-31T04:51:35.411Z,45.62
2017-07-31T04:54:02.980Z,45.56
2017-07-31T04:56:30.506Z,45.52
2017-07-31T04:58:58.135Z,45.47
2017-07-31T05:01:25.672Z,45.47
2017-07-31T05:03:53.236Z,45.44
2017-07-31T05:06:20.783Z,45.39
2017-07-31T05:08:48.383Z,45.34
2017-07-31T05:11:15.944Z,45.28
2017-07-31T05:13:43.506Z,45.28
2017-07-31T05:16:11.134Z,45.23
2017-07-31T05:18:38.658Z,45.25
2017-07-31T05:21:06.192Z,45.13
2017-07-31T05:23:33.786Z,45.13
2017-07-31T05:26:01.339Z,45.18
2017-07-31T05:28:28.861Z,45.08
2017-07-31T05:30:56.393Z,45.06
2017-07-31T05:33:23.962Z,45.15
2017-07-31T05:35:51.506Z,45.11
2017-07-31T05:38:19.061Z,45.01
2017-07-31T05:40:46.612Z,44.97
2017-07-31T05:43:14.290Z,44.93
2017-07-31T05:45:41.891Z,45.02
2017-07-31T05:48:09.580Z,45.04
2017-07-31T05:50:37.171Z,45.05
2017-07-31T05:53:04.763Z,45.28
2017-07-31T05:55:32.327Z,45.25
2017-07-31T05:57:59.870Z,45.09
2017-07-31T06:00:27.467Z,45.08
2017-07-31T06:02:54.982Z,44.91
2017-07-31T06:05:22.507Z,44.91
2017-07-31T06:07:50.246Z,44.90
2017-07-31T06:10:17.802Z,44.97
2017-07-31T06:12:45.323Z,45.11
2017-07-31T06:15:13.003Z,45.15
2017-07-31T06:17:40.682Z,45.27
2017-07-31T06:20:08.457Z,45.25
2017-07-31T06:22:36.123Z,45.06
2017-07-31T06:25:03.666Z,45.03
2017-07-31T06:27:31.327Z,44.99
2017-07-31T06:29:58.952Z,45.18
2017-07-31T06:32:26.531Z,45.05
2017-07-31T06:34:54.198Z,45.06
2017-07-31T06:37:21.783Z,45.20
2017-07-31T06:39:57.809Z,45.18
2017-07-31T06:42:25.481Z,45.10
2017-07-31T06:44:54.447Z,45.08
2017-07-31T06:47:22.223Z,45.20
2017-07-31T06:49:49.738Z,45.09
2017-07-31T06:52:17.344Z,45.15
2017-07-31T06:54:45.014Z,45.03
2017-07-31T06:57:12.620Z,45.08
2017-07-31T06:59:40.184Z,44.99
2017-07-31T07:02:07.835Z,45.04
2017-07-31T07:04:35.377Z,45.10
2017-07-31T07:07:03.013Z,45.03
2017-07-31T07:09:30.604Z,45.17
2017-07-31T07:11:58.231Z,45.09
2017-07-31T07:14:26.587Z,45.12
2017-07-31T07:16:54.188Z,45.15
2017-07-31T07:19:21.792Z,45.09
2017-07-31T07:21:49.343Z,45.08
2017-07-31T07:24:16.969Z,45.11
2017-07-31T07:26:45.712Z,45.10
2017-07-31T07:29:14.680Z,45.03
2017-07-31T07:31:42.302Z,45.21
2017-07-31T07:34:10.133Z,45.08
2017-07-31T07:36:37.851Z,45.06
2017-07-31T07:39:05.550Z,45.19
2017-07-31T07:41:33.378Z,45.25
2017-07-31T07:44:03.468Z,45.11
2017-07-31T07:46:31.437Z,45.11
2017-07-31T07:48:59.233Z,45.04
2017-07-31T07:51:27.333Z,44.98
2017-07-31T07:53:54.971Z,44.93
2017-07-31T07:56:22.637Z,44.91
2017-07-31T07:58:50.214Z,44.75
2017-07-31T08:01:17.866Z,44.84
2017-07-31T08:03:49.977Z,45.00
2017-07-31T08:06:18.621Z,44.80
2017-07-31T08:08:46.202Z,44.78
2017-07-31T08:11:13.839Z,44.90
2017-07-31T08:13:41.527Z,44.96
2017-07-31T08:16:09.197Z,44.78
2017-07-31T08:18:36.853Z,44.84
2017-07-31T08:21:04.716Z,44.92
2017-07-31T08:23:32.336Z,44.98
2017-07-31T08:26:00.008Z,44.97
2017-07-31T08:28:29.051Z,45.12
2017-07-31T08:30:56.936Z,45.11
2017-07-31T08:44:45.192Z,44.90
2017-07-31T08:47:12.781Z,44.97
2017-07-31T08:49:47.793Z,44.80
2017-07-31T08:52:15.477Z,44.86
2017-07-31T09:04:44.108Z,44.87
2017-07-31T09:07:11.654Z,44.83
2017-07-31T09:09:39.291Z,44.85
2017-07-31T09:12:07.062Z,44.74
2017-07-31T09:14:34.596Z,44.76
2017-07-31T09:17:02.257Z,44.58
2017-07-31T09:19:29.897Z,44.46
2017-07-31T09:21:57.447Z,44.66
2017-07-31T09:24:25.013Z,44.63
2017-07-31T09:26:52.594Z,44.42
2017-07-31T09:29:20.169Z,44.58
2017-07-31T09:31:47.904Z,44.63
2017-07-31T09:34:15.485Z,44.50
2017-07-31T09:36:43.124Z,44.52
2017-07-31T09:39:10.638Z,44.55
2017-07-31T09:41:38.173Z,44.63
2017-07-31T09:44:05.814Z,44.54
2017-07-31T09:46:33.382Z,44.68
2017-07-31T09:49:01.032Z,44.70
2017-07-31T09:51:28.607Z,44.50
2017-07-31T09:53:56.138Z,44.41
2017-07-31T09:56:23.765Z,44.40
2017-07-31T09:58:51.322Z,44.29
2017-07-31T10:01:18.921Z,44.45
2017-07-31T10:03:46.661Z,44.28
2017-07-31T10:06:14.518Z,44.38
2017-07-31T10:08:42.164Z,44.32
2017-07-31T10:11:09.782Z,44.21
2017-07-31T10:13:37.521Z,44.18
2017-07-31T10:16:05.218Z,44.17
2017-07-31T10:18:32.873Z,44.21
2017-07-31T10:21:00.468Z,44.46
2017-07-31T10:23:28.667Z,44.27
2017-07-31T10:25:56.650Z,44.17
2017-07-31T10:28:25.733Z,44.03
2017-07-31T10:30:53.471Z,44.05
2017-07-31T10:33:21.660Z,43.96
2017-07-31T10:35:56.602Z,43.91
2017-07-31T10:38:27.098Z,43.85
2017-07-31T10:43:33.062Z,43.85
2017-07-31T10:46:00.986Z,43.69
2017-07-31T10:48:28.642Z,43.76
2017-07-31T10:50:57.211Z,43.42
2017-07-31T10:53:26.635Z,43.32
2017-07-31T10:55:54.522Z,43.23
2017-07-31T10:58:24.102Z,42.97
2017-07-31T11:00:55.777Z,42.99
2017-07-31T11:03:32.125Z,42.68
2017-07-31T11:06:05.167Z,42.58
2017-07-31T11:09:23.251Z,42.57
2017-07-31T11:11:51.517Z,42.52
2017-07-31T11:14:19.884Z,42.64
2017-07-31T11:16:48.333Z,42.48
2017-07-31T11:19:16.585Z,42.27
2017-07-31T11:25:04.617Z,42.06
2017-07-31T11:27:35.271Z,41.87
2017-07-31T11:30:03.821Z,42.15
2017-07-31T11:32:32.822Z,42.17
2017-07-31T11:38:23.363Z,41.62
2017-07-31T11:40:51.174Z,41.75
2017-07-31T11:47:05.900Z,41.39
2017-07-31T11:49:33.801Z,41.44
2017-07-31T11:52:06.155Z,41.39
2017-07-31T11:54:36.061Z,41.27
2017-07-31T11:57:04.288Z,41.15
2017-07-31T12:03:04.209Z,41.23
2017-07-31T12:05:54.379Z,41.29
2017-07-31T12:08:23.663Z,41.11
2017-07-31T12:10:52.525Z,41.03
2017-07-31T12:13:23.107Z,40.91
2017-07-31T12:15:52.484Z,40.90
2017-07-31T12:18:20.400Z,40.94
2017-07-31T12:20:57.234Z,40.85
2017-07-31T12:23:26.393Z,40.71
2017-07-31T12:25:54.331Z,40.71
2017-07-31T12:28:42.301Z,40.62
2017-07-31T12:31:11.496Z,40.66
2017-07-31T12:33:45.408Z,40.70
2017-07-31T12:36:15.579Z,40.52
2017-07-31T12:38:45.594Z,40.51
2017-07-31T12:41:13.687Z,40.45
2017-07-31T12:43:41.887Z,40.34
2017-07-31T12:46:12.288Z,40.53
2017-07-31T12:48:40.683Z,40.30
2017-07-31T12:51:08.647Z,40.44
2017-07-31T12:53:36.504Z,40.22
2017-07-31T12:56:04.391Z,40.07
2017-07-31T12:58:31.955Z,40.12
2017-07-31T13:00:59.669Z,40.13
2017-07-31T13:03:27.293Z,39.95
2017-07-31T13:05:55.225Z,39.97
2017-07-31T13:08:22.913Z,39.99
2017-07-31T13:10:50.462Z,39.85
2017-07-31T13:13:18.063Z,39.94
2017-07-31T13:15:45.605Z,39.87
2017-07-31T13:18:13.214Z,39.79
2017-07-31T13:20:40.987Z,39.67
2017-07-31T13:23:08.727Z,39.53
2017-07-31T13:25:36.317Z,39.62
2017-07-31T13:28:03.894Z,39.48
2017-07-31T13:30:31.469Z,39.53
2017-07-31T13:32:59.112Z,39.54
2017-07-31T13:35:27.092Z,39.46
2017-07-31T13:37:54.749Z,39.47
2017-07-31T13:40:22.306Z,39.47
2017-07-31T13:42:49.900Z,39.37
2017-07-31T13:45:17.467Z,39.39
2017-07-31T13:47:46.374Z,39.55
2017-07-31T13:50:14.318Z,39.60
2017-07-31T13:52:42.260Z,39.45
2017-07-31T13:55:09.925Z,39.41
2017-07-31T13:57:37.659Z,39.48
2017-07-31T14:00:05.528Z,39.45
2017-07-31T14:02:33.149Z,39.42
2017-07-31T14:05:00.998Z,39.39
2017-07-31T14:07:29.555Z,39.37
2017-07-31T14:09:57.223Z,39.27
2017-07-31T14:12:29.106Z,39.35
2017-07-31T14:14:59.104Z,39.56
2017-07-31T14:17:26.785Z,39.43
2017-07-31T14:19:54.738Z,39.50
2017-07-31T14:22:22.319Z,39.42
2017-07-31T14:24:50.373Z,39.43
2017-07-31T14:27:19.156Z,39.38
2017-07-31T14:29:54.606Z,39.24
2017-07-31T14:32:22.815Z,39.34
2017-07-31T14:34:54.228Z,39.24
2017-07-31T14:37:22.714Z,39.31
2017-07-31T14:39:50.687Z,39.29
2017-07-31T14:42:18.712Z,39.34
2017-07-31T14:44:47.166Z,39.47
2017-07-31T14:47:15.588Z,39.68
2017-07-31T14:49:43.365Z,39.53
2017-07-31T14:52:12.565Z,39.58
2017-07-31T14:54:40.965Z,39.59
2017-07-31T14:57:08.859Z,39.69
2017-07-31T14:59:44.747Z,39.61
2017-07-31T15:02:13.275Z,39.98
2017-07-31T15:04:41.047Z,40.00
2017-07-31T15:07:08.883Z,39.92
2017-07-31T15:09:36.746Z,39.84
2017-07-31T15:12:04.720Z,39.72
2017-07-31T15:14:32.407Z,39.80
2017-07-31T15:17:00.042Z,39.88
2017-07-31T15:19:27.569Z,40.03
2017-07-31T15:21:55.231Z,40.08
2017-07-31T15:24:22.754Z,40.20
2017-07-31T15:26:52.581Z,40.27
2017-07-31T15:29:20.282Z,40.12
2017-07-31T15:31:47.809Z,40.24
2017-07-31T15:34:15.607Z,40.25
2017-07-31T15:36:43.255Z,40.53
2017-07-31T15:39:11.083Z,40.49
2017-07-31T15:41:38.657Z,40.51
2017-07-31T15:44:06.197Z,40.45
2017-07-31T15:46:33.747Z,40.46
2017-07-31T15:49:09.161Z,40.68
2017-07-31T15:51:36.685Z,40.74
2017-07-31T15:54:04.237Z,40.77
2017-07-31T15:56:31.745Z,40.74
2017-07-31T16:09:07.961Z,41.07
2017-07-31T16:28:36.754Z,41.32
2017-07-31T16:31:04.344Z,41.29
2017-07-31T16:33:31.847Z,41.28
2017-07-31T16:35:59.389Z,41.28
2017-07-31T16:38:26.955Z,41.49
2017-07-31T16:40:54.462Z,41.42
2017-07-31T16:43:21.993Z,41.48
2017-07-31T16:45:49.533Z,41.42
2017-07-31T16:48:17.037Z,41.40
2017-07-31T16:50:44.596Z,41.37
2017-07-31T16:53:12.151Z,41.44
2017-07-31T16:55:39.731Z,41.36
2017-07-31T16:58:07.238Z,41.36
2017-07-31T17:00:34.791Z,41.32
2017-07-31T17:03:02.291Z,41.30
2017-07-31T17:05:29.789Z,41.28
2017-07-31T17:07:57.351Z,41.23
2017-07-31T17:10:24.851Z,41.18
2017-07-31T17:12:52.396Z,41.15
2017-07-31T17:15:20.008Z,41.14
2017-07-31T17:17:47.569Z,41.07
2017-07-31T17:20:15.071Z,41.00
2017-07-31T17:22:42.649Z,40.96
2017-07-31T17:25:10.208Z,40.95
2017-07-31T17:27:37.769Z,40.85
2017-07-31T17:30:05.329Z,40.74
2017-07-31T17:32:32.846Z,40.65
2017-07-31T17:35:00.338Z,40.49
2017-07-31T17:37:27.869Z,40.50
2017-07-31T17:39:55.436Z,40.43
2017-07-31T17:42:22.933Z,40.33
2017-07-31T17:44:50.467Z,40.26
2017-07-31T17:47:18.053Z,40.31
2017-07-31T17:49:52.619Z,40.19
2017-07-31T17:52:20.190Z,40.07
2017-07-31T17:54:47.689Z,39.96
2017-07-31T17:57:15.193Z,40.01
2017-07-31T17:59:42.749Z,39.91
2017-07-31T18:02:10.286Z,39.93
2017-07-31T18:04:37.842Z,40.00
2017-07-31T18:07:05.337Z,39.79
2017-07-31T18:09:32.836Z,39.88
2017-07-31T18:12:00.386Z,39.90
2017-07-31T18:14:27.893Z,39.90
2017-07-31T18:16:55.400Z,39.90
2017-07-31T18:19:30.176Z,39.87
2017-07-31T18:21:57.676Z,39.82
2017-07-31T18:24:25.181Z,39.85
2017-07-31T18:26:52.722Z,39.78
2017-07-31T18:29:20.227Z,39.75
2017-07-31T18:31:47.741Z,39.72
2017-07-31T18:34:15.314Z,39.73
2017-07-31T18:36:42.814Z,39.71
2017-07-31T18:39:10.357Z,39.71
2017-07-31T18:41:37.892Z,39.69
2017-07-31T18:44:05.429Z,39.68
2017-07-31T18:46:32.980Z,39.68
2017-07-31T18:49:00.538Z,39.68
2017-07-31T18:51:28.033Z,39.47
2017-07-31T18:53:55.537Z,39.54
2017-07-31T18:56:23.079Z,39.65
2017-07-31T18:58:50.613Z,39.76
2017-07-31T19:01:18.152Z,39.77
2017-07-31T19:03:45.653Z,39.95
2017-07-31T19:06:13.179Z,39.87
2017-07-31T19:08:40.814Z,39.97
2017-07-31T19:11:08.333Z,40.08
2017-07-31T19:13:35.834Z,39.75
2017-07-31T19:16:03.373Z,39.76
2017-07-31T19:18:30.879Z,39.83
2017-07-31T19:20:58.439Z,39.91
2017-07-31T19:23:26.005Z,40.00
2017-07-31T19:28:51.221Z,40.17
2017-07-31T19:31:18.721Z,40.21
2017-07-31T19:33:46.221Z,40.24
2017-07-31T19:36:13.864Z,40.24
2017-07-31T19:51:39.530Z,40.68
2017-07-31T19:56:40.871Z,40.88
2017-07-31T19:59:08.369Z,40.88
2017-07-31T20:01:35.906Z,40.90
2017-07-31T20:04:03.462Z,41.00
2017-07-31T20:06:30.970Z,40.98
2017-07-31T20:08:58.474Z,40.99
2017-07-31T20:11:26.028Z,41.06
2017-07-31T20:13:53.529Z,41.03
2017-07-31T20:16:21.070Z,41.13
2017-07-31T20:18:48.568Z,41.14
2017-07-31T20:21:16.113Z,41.19
2017-07-31T20:23:43.678Z,41.19
2017-07-31T20:26:11.266Z,41.31
2017-07-31T20:28:38.769Z,41.25
2017-07-31T20:31:06.262Z,41.29
2017-07-31T20:33:33.805Z,41.35
2017-07-31T20:36:01.309Z,41.47
2017-07-31T20:38:28.802Z,41.49
2017-07-31T20:40:56.351Z,41.53
2017-07-31T20:43:23.852Z,41.46
2017-07-31T20:45:51.385Z,41.45
2017-07-31T20:48:18.954Z,41.55
2017-07-31T20:50:46.457Z,41.56
2017-07-31T20:53:13.970Z,41.60
2017-07-31T20:55:41.504Z,41.69
2017-07-31T20:58:09.054Z,41.73
2017-07-31T21:00:36.563Z,41.93
2017-07-31T21:03:04.065Z,41.93
2017-07-31T21:05:31.594Z,41.89
2017-07-31T21:07:59.088Z,41.90
2017-07-31T21:10:26.633Z,41.89
2017-07-31T21:12:54.133Z,41.84
2017-07-31T21:15:21.634Z,41.97
2017-07-31T21:17:49.193Z,42.09
2017-07-31T21:20:24.114Z,42.06
2017-07-31T21:22:51.646Z,42.05
2017-07-31T21:25:19.145Z,42.09
2017-07-31T21:27:46.683Z,42.12
2017-07-31T21:30:19.095Z,42.08
2017-07-31T21:32:46.651Z,42.07
2017-07-31T21:35:14.263Z,42.23
2017-07-31T21:37:41.809Z,42.19
2017-07-31T21:40:16.274Z,42.13
2017-07-31T21:42:43.881Z,42.23
2017-07-31T21:45:11.391Z,42.25
2017-07-31T21:47:40.864Z,42.23
2017-07-31T22:00:17.197Z,42.70
2017-07-31T22:02:44.745Z,42.70
2017-07-31T22:05:12.301Z,42.72
2017-07-31T22:07:39.825Z,42.80
2017-07-31T22:20:15.901Z,43.11
2017-07-31T22:22:43.440Z,43.03
2017-07-31T22:25:11.033Z,43.01
2017-07-31T22:40:37.469Z,43.18
2017-07-31T22:43:04.974Z,43.23
2017-07-31T22:45:32.469Z,43.23
2017-07-31T22:48:00.004Z,43.29
2017-07-31T22:50:27.501Z,43.41
2017-07-31T22:52:55.055Z,43.29
2017-07-31T22:55:22.553Z,43.51
2017-07-31T22:57:50.052Z,43.45
2017-07-31T23:00:25.376Z,43.69
2017-07-31T23:05:26.798Z,43.54
2017-07-31T23:07:54.310Z,43.62
2017-07-31T23:20:30.494Z,43.49
2017-07-31T23:25:31.774Z,43.72
2017-07-31T23:27:59.349Z,43.71
2017-07-31T23:40:35.506Z,43.89
2017-07-31T23:43:03.001Z,43.70
2017-07-31T23:45:30.496Z,43.67
2017-07-31T23:47:58.034Z,43.67
2017-07-31T23:50:25.529Z,43.64
2017-07-31T23:52:53.089Z,43.70
2017-07-31T23:55:20.597Z,43.65
2017-07-31T23:57:48.107Z,43.67
